Canadian, TX (79014)

12:04 PM CDT on September 05, 2015 (GMT -0500)
APRSWXNET | | Change Station
CLOSE
Current Station
Personal Weather Station
Location: Canadian, TX
Elevation: 2434 ft
Nearby Weather Stations

Elev 2434 ft 35.90 °N, 100.39 °W | Updated 27 minutes ago

Clear
Clear
88 °F
Feels Like 90 °F
N
8
Wind Variable Wind from SSW
Gusts 17.0 mph

Today
High -- | Low -- °F
--% Chance of Precip.
Yesterday
High -- | Low -- °F
Precip. -- in
7:16 AM 8:03 PM
Waning Gibbous, 47% visible
Pressure 30.01 in
Visibility 10.0 miles
Clouds Clear
Heat Index 90 °F
Dew Point 65 °F
Humidity 46%
Rainfall in
Snow Depth Not available.
UV 8 out of 12
Pollen 10.80 out of 12
Air Quality Not available.
Flu Activity Not available.
METAR KHHF 051655Z AUTO 22010G14KT 10SM CLR 33/17 A3001 RMK AO2 T03250174
Pressure 30.01 in
Visibility 10.0 miles
Clouds Clear
Heat Index 90 °F
Dew Point 65 °F
Humidity 46%
Rainfall in
Snow Depth Not available.
UV 8 out of 12
Pollen 10.80 out of 12
Air Quality Not available.
Flu Activity Not available.
METAR KHHF 051655Z AUTO 22010G14KT 10SM CLR 33/17 A3001 RMK AO2 T03250174

10-Day Weather Forecast

×

Almanac

Astronomy

Sep. 05, 2015 Rise Set
Actual Time
Civil Twilight
Nautical Twilight
Astronomical Twilight
Moon
Length of Visible Light
Length of Day
Tomorrow will be .
, % of the Moon is Illuminated

Today's Extremes

State Highs State Lows

Community

WunderPhotos

Upload Photos

1,852,503 photos uploaded!

WunderBlogs® & News

Nearby

Air Quality

  Air Quality AQ Index Pollutant
Not available.

Snow Depth

Station Depth Elevation

Earthquake Activity

City Distance Mag. Time & Date
Minimum magnitude displayed is 2.5.

Coastal Water Temperatures

Place Temperature

Stations

Nearby Weather Stations

Station Location Temp. Windchill Dew Point Humidity Wind Precip. Elev Updated Type